createdAt,value
2019-03-15T00:01:45.021Z,3.80
2019-03-15T00:03:51.717Z,3.83
2019-03-15T00:05:59.315Z,3.83
2019-03-15T00:08:06.468Z,3.84
2019-03-15T00:10:14.271Z,3.85
2019-03-15T00:12:21.568Z,3.87
2019-03-15T00:14:28.341Z,3.88
2019-03-15T00:16:35.000Z,3.89
2019-03-15T00:18:41.746Z,3.90
2019-03-15T00:20:48.467Z,3.90
2019-03-15T00:22:55.120Z,3.88
2019-03-15T00:25:01.985Z,3.89
2019-03-15T00:27:08.809Z,3.87
2019-03-15T00:29:15.473Z,3.86
2019-03-15T00:31:22.152Z,3.85
2019-03-15T00:33:28.812Z,3.84
2019-03-15T00:35:35.921Z,3.84
2019-03-15T00:37:42.874Z,3.82
2019-03-15T00:39:50.626Z,3.81
2019-03-15T00:41:57.336Z,3.79
2019-03-15T00:44:04.026Z,3.80
2019-03-15T00:46:10.742Z,3.81
2019-03-15T00:48:17.401Z,3.80
2019-03-15T00:50:24.088Z,3.82
2019-03-15T00:52:30.768Z,3.83
2019-03-15T00:54:37.418Z,3.87
2019-03-15T00:56:44.097Z,3.90
2019-03-15T00:58:50.760Z,3.89
2019-03-15T01:00:57.413Z,3.90
2019-03-15T01:03:04.102Z,3.93
2019-03-15T01:05:10.830Z,3.93
2019-03-15T01:07:17.500Z,3.95
2019-03-15T01:09:24.178Z,3.94
2019-03-15T01:11:30.837Z,3.92
2019-03-15T01:13:37.505Z,3.90
2019-03-15T01:15:44.187Z,3.92
2019-03-15T01:17:50.838Z,3.94
2019-03-15T01:19:57.499Z,3.94
2019-03-15T01:22:05.284Z,3.91
2019-03-15T01:24:11.938Z,3.87
2019-03-15T01:26:18.681Z,3.86
2019-03-15T01:28:25.367Z,3.84
2019-03-15T01:30:32.009Z,3.81
2019-03-15T01:32:38.730Z,3.78
2019-03-15T01:34:45.423Z,3.75
2019-03-15T01:36:52.148Z,3.73
2019-03-15T01:38:58.813Z,3.68
2019-03-15T01:41:05.565Z,3.66
2019-03-15T01:43:13.283Z,3.68
2019-03-15T01:45:20.104Z,3.67
2019-03-15T01:47:26.859Z,3.63
2019-03-15T01:49:33.643Z,3.65
2019-03-15T01:51:41.438Z,3.61
2019-03-15T01:53:48.503Z,3.62
2019-03-15T01:55:56.368Z,3.59
2019-03-15T01:58:03.062Z,3.61
2019-03-15T02:00:11.625Z,3.59
2019-03-15T02:02:18.324Z,3.59
2019-03-15T02:04:24.990Z,3.58
2019-03-15T02:06:31.692Z,3.58
2019-03-15T02:08:38.440Z,3.56
2019-03-15T02:10:46.270Z,3.57
2019-03-15T02:12:52.951Z,3.57
2019-03-15T02:14:59.675Z,3.59
2019-03-15T02:17:06.338Z,3.61
2019-03-15T02:19:13.022Z,3.61
2019-03-15T02:21:19.683Z,3.63
2019-03-15T02:23:26.346Z,3.65
2019-03-15T02:25:33.045Z,3.68
2019-03-15T02:27:39.689Z,3.72
2019-03-15T02:29:46.346Z,3.73
2019-03-15T02:31:53.030Z,3.73
2019-03-15T02:34:00.716Z,3.75
2019-03-15T02:36:07.458Z,3.73
2019-03-15T02:38:14.210Z,3.72
2019-03-15T02:40:20.967Z,3.72
2019-03-15T02:42:27.688Z,3.71
2019-03-15T02:44:34.451Z,3.76
2019-03-15T02:46:41.154Z,3.78
2019-03-15T02:48:47.795Z,3.79
2019-03-15T02:50:56.161Z,3.80
2019-03-15T02:53:02.850Z,3.77
2019-03-15T02:55:09.881Z,3.75
2019-03-15T02:57:16.564Z,3.75
2019-03-15T02:59:23.226Z,3.75
2019-03-15T03:01:29.879Z,3.76
2019-03-15T03:03:37.582Z,3.74
2019-03-15T03:05:44.221Z,3.72
2019-03-15T03:07:51.144Z,3.71
2019-03-15T03:09:57.874Z,3.71
2019-03-15T03:12:04.595Z,3.72
2019-03-15T03:14:11.335Z,3.68
2019-03-15T03:16:18.761Z,3.71
2019-03-15T03:18:25.772Z,3.74
2019-03-15T03:20:32.439Z,3.74
2019-03-15T03:22:39.203Z,3.70
2019-03-15T03:24:47.154Z,3.69
2019-03-15T03:26:54.021Z,3.66
2019-03-15T03:29:00.775Z,3.65
2019-03-15T03:31:07.447Z,3.63
2019-03-15T03:33:14.388Z,3.61
2019-03-15T03:35:21.341Z,3.59
2019-03-15T03:37:28.077Z,3.58
2019-03-15T03:39:34.778Z,3.56
2019-03-15T03:41:41.584Z,3.58
2019-03-15T03:43:49.349Z,3.54
2019-03-15T03:45:56.079Z,3.55
2019-03-15T03:48:02.788Z,3.54
2019-03-15T03:50:11.719Z,3.50
2019-03-15T03:52:18.457Z,3.49
2019-03-15T03:54:25.222Z,3.48
2019-03-15T03:56:32.165Z,3.47
2019-03-15T03:58:38.830Z,3.50
2019-03-15T04:00:45.554Z,3.50
2019-03-15T04:02:53.380Z,3.49
2019-03-15T04:05:00.531Z,3.46
2019-03-15T04:07:07.228Z,3.50
2019-03-15T04:09:13.964Z,3.51
2019-03-15T04:11:20.627Z,3.55
2019-03-15T04:13:27.340Z,3.58
2019-03-15T04:15:34.059Z,3.61
2019-03-15T04:17:40.803Z,3.59
2019-03-15T04:19:47.491Z,3.59
2019-03-15T04:21:54.226Z,3.59
2019-03-15T04:24:00.958Z,3.60
2019-03-15T04:26:07.672Z,3.59
2019-03-15T04:28:14.253Z,3.58
2019-03-15T04:30:20.988Z,3.59
2019-03-15T04:32:27.753Z,3.58
2019-03-15T04:34:34.425Z,3.63
2019-03-15T04:36:41.095Z,3.61
2019-03-15T04:38:47.865Z,3.63
2019-03-15T04:40:54.593Z,3.64
2019-03-15T04:43:01.249Z,3.61
2019-03-15T04:45:09.507Z,3.65
2019-03-15T04:47:16.163Z,3.63
2019-03-15T04:49:22.829Z,3.63
2019-03-15T04:51:29.536Z,3.64
2019-03-15T04:53:36.205Z,3.59
2019-03-15T04:55:42.865Z,3.56
2019-03-15T04:57:49.830Z,3.57
2019-03-15T04:59:56.490Z,3.61
2019-03-15T05:02:03.228Z,3.62
2019-03-15T05:04:09.897Z,3.65
2019-03-15T05:06:16.562Z,3.66
2019-03-15T05:08:23.300Z,3.64
2019-03-15T05:10:29.982Z,3.66
2019-03-15T05:12:36.701Z,3.67
2019-03-15T05:14:44.330Z,3.68
2019-03-15T05:16:51.470Z,3.70
2019-03-15T05:18:58.193Z,3.71
2019-03-15T05:21:04.957Z,3.74
2019-03-15T05:23:11.676Z,3.76
2019-03-15T05:25:18.338Z,3.76
2019-03-15T05:27:24.990Z,3.77
2019-03-15T05:29:31.821Z,3.77
2019-03-15T05:31:38.486Z,3.80
2019-03-15T05:33:45.163Z,3.82
2019-03-15T05:35:51.842Z,3.85
2019-03-15T05:37:58.569Z,3.87
2019-03-15T05:40:08.321Z,3.90
2019-03-15T05:42:15.085Z,3.96
2019-03-15T05:44:21.741Z,3.98
2019-03-15T05:46:29.472Z,4.02
2019-03-15T05:48:37.233Z,4.02
2019-03-15T05:50:43.900Z,4.03
2019-03-15T05:52:50.562Z,4.05
2019-03-15T05:54:57.188Z,4.07
2019-03-15T05:57:04.400Z,4.09
2019-03-15T05:59:11.128Z,4.09
2019-03-15T06:01:17.828Z,4.12
2019-03-15T06:03:24.492Z,4.16
2019-03-15T06:05:31.147Z,4.19
2019-03-15T06:07:37.837Z,4.19
2019-03-15T06:09:44.564Z,4.17
2019-03-15T06:11:51.217Z,4.17
2019-03-15T06:13:57.901Z,4.21
2019-03-15T06:16:04.631Z,4.24
2019-03-15T06:18:11.388Z,4.29
2019-03-15T06:20:19.084Z,4.29
2019-03-15T06:22:25.820Z,4.33
2019-03-15T06:24:32.556Z,4.37
2019-03-15T06:26:39.235Z,4.42
2019-03-15T06:28:45.880Z,4.44
2019-03-15T06:30:52.533Z,4.46
2019-03-15T06:32:59.209Z,4.45
2019-03-15T06:35:06.639Z,4.48
2019-03-15T06:37:13.317Z,4.55
2019-03-15T06:39:20.063Z,4.61
2019-03-15T06:41:26.729Z,4.57
2019-03-15T06:43:33.384Z,4.53
2019-03-15T06:45:41.805Z,4.56
2019-03-15T06:47:48.669Z,4.63
2019-03-15T06:49:55.334Z,4.65
2019-03-15T06:52:02.116Z,4.64
2019-03-15T06:54:11.758Z,4.68
2019-03-15T06:56:17.129Z,4.73
2019-03-15T06:58:23.732Z,4.70
2019-03-15T07:00:30.377Z,4.55
2019-03-15T07:02:37.036Z,4.61
2019-03-15T07:04:43.799Z,4.58
2019-03-15T07:06:50.458Z,4.68
2019-03-15T07:08:57.119Z,4.73
2019-03-15T07:11:05.250Z,4.73
2019-03-15T07:13:11.963Z,4.71
2019-03-15T07:15:18.623Z,4.72
2019-03-15T07:17:25.311Z,4.77
2019-03-15T07:19:32.047Z,4.85
2019-03-15T07:21:38.706Z,4.88
2019-03-15T07:23:45.391Z,4.86
2019-03-15T07:25:52.091Z,4.86
2019-03-15T07:27:58.782Z,4.91
2019-03-15T07:30:09.207Z,4.92
2019-03-15T07:32:15.940Z,4.96
2019-03-15T07:34:22.608Z,4.98
2019-03-15T07:36:29.332Z,5.00
2019-03-15T07:38:35.978Z,4.97
2019-03-15T07:40:42.578Z,4.99
2019-03-15T07:42:49.257Z,5.03
2019-03-15T07:44:55.920Z,5.10
2019-03-15T07:47:02.651Z,5.15
2019-03-15T07:49:09.349Z,5.13
2019-03-15T07:51:16.072Z,5.21
2019-03-15T07:53:22.726Z,5.31
2019-03-15T07:55:29.402Z,5.47
2019-03-15T07:57:36.129Z,5.63
2019-03-15T07:59:42.866Z,5.64
2019-03-15T08:01:52.591Z,5.79
2019-03-15T08:03:57.903Z,5.86
2019-03-15T08:06:04.723Z,5.94
2019-03-15T08:08:11.481Z,5.90
2019-03-15T08:10:18.141Z,6.01
2019-03-15T08:12:24.788Z,6.12
2019-03-15T08:14:31.540Z,6.01
2019-03-15T08:16:38.199Z,6.02
2019-03-15T08:18:44.852Z,5.98
2019-03-15T08:20:52.549Z,6.02
2019-03-15T08:22:59.208Z,6.00
2019-03-15T08:25:07.752Z,6.05
2019-03-15T08:27:16.111Z,6.10
2019-03-15T08:29:22.753Z,6.15
2019-03-15T08:31:29.401Z,6.16
2019-03-15T08:33:36.090Z,6.14
2019-03-15T08:35:42.748Z,6.24
2019-03-15T08:37:49.661Z,6.38
2019-03-15T08:39:56.531Z,6.57
2019-03-15T08:42:03.184Z,6.77
2019-03-15T08:44:09.840Z,6.89
2019-03-15T08:46:16.514Z,6.96
2019-03-15T08:48:23.409Z,6.96
2019-03-15T08:50:30.189Z,6.86
2019-03-15T08:52:36.870Z,6.73
2019-03-15T08:54:46.494Z,6.61
2019-03-15T08:56:51.884Z,6.48
2019-03-15T08:58:58.544Z,6.46
2019-03-15T09:01:06.295Z,6.41
2019-03-15T09:03:26.563Z,6.33
2019-03-15T09:05:21.331Z,6.25
2019-03-15T09:07:27.974Z,6.16
2019-03-15T09:09:36.120Z,6.11
2019-03-15T09:11:43.069Z,6.09
2019-03-15T09:13:49.719Z,6.05
2019-03-15T09:15:56.474Z,6.08
2019-03-15T09:18:03.145Z,6.14
2019-03-15T09:20:20.091Z,6.08
2019-03-15T09:22:26.742Z,6.18
2019-03-15T09:24:33.417Z,6.16
2019-03-15T09:26:40.077Z,6.17
2019-03-15T09:28:46.793Z,6.17
2019-03-15T09:30:53.475Z,6.18
2019-03-15T09:33:02.925Z,6.23
2019-03-15T09:35:09.955Z,6.24
2019-03-15T09:37:17.917Z,6.26
2019-03-15T09:39:24.678Z,6.24
2019-03-15T09:41:39.294Z,6.30
2019-03-15T09:43:39.793Z,6.37
2019-03-15T09:45:46.631Z,6.50
2019-03-15T09:47:53.334Z,6.62
2019-03-15T09:50:00.175Z,6.69
2019-03-15T09:52:07.223Z,6.65
2019-03-15T09:54:13.952Z,6.81
2019-03-15T09:56:20.619Z,6.98
2019-03-15T09:58:27.413Z,7.19
2019-03-15T10:00:34.198Z,7.40
2019-03-15T10:02:40.869Z,7.49
2019-03-15T10:04:47.596Z,7.63
2019-03-15T10:06:54.264Z,7.79
2019-03-15T10:09:00.953Z,7.64
2019-03-15T10:11:08.804Z,7.49
2019-03-15T10:13:15.454Z,7.35
2019-03-15T10:15:22.135Z,7.23
2019-03-15T10:17:35.072Z,7.10
2019-03-15T10:19:41.934Z,7.06
2019-03-15T10:21:48.889Z,6.98
2019-03-15T10:23:55.530Z,7.10
2019-03-15T10:26:02.254Z,7.20
2019-03-15T10:28:08.937Z,7.34
2019-03-15T10:30:20.269Z,7.54
2019-03-15T10:32:26.925Z,7.66
2019-03-15T10:34:35.667Z,7.80
2019-03-15T10:36:42.126Z,7.96
2019-03-15T10:38:48.780Z,8.06
2019-03-15T10:40:55.538Z,8.23
2019-03-15T10:43:02.188Z,8.42
2019-03-15T10:45:11.149Z,8.13
2019-03-15T10:47:17.836Z,8.00
2019-03-15T10:49:24.549Z,7.79
2019-03-15T10:51:31.129Z,7.65
2019-03-15T10:53:37.813Z,7.71
2019-03-15T10:55:44.529Z,8.04
2019-03-15T10:57:51.198Z,8.31
2019-03-15T10:59:57.964Z,8.25
2019-03-15T11:02:04.783Z,8.34
2019-03-15T11:04:11.433Z,8.42
2019-03-15T11:06:18.187Z,8.31
2019-03-15T11:08:24.912Z,8.34
2019-03-15T11:10:31.636Z,8.16
2019-03-15T11:12:38.321Z,8.17
2019-03-15T11:14:45.027Z,8.08
2019-03-15T11:16:51.673Z,8.00
2019-03-15T11:18:58.360Z,8.00
2019-03-15T11:21:05.085Z,8.12
2019-03-15T11:23:11.954Z,8.42
2019-03-15T11:25:18.708Z,8.43
2019-03-15T11:27:25.428Z,8.59
2019-03-15T11:29:32.079Z,8.53
2019-03-15T11:31:38.827Z,8.40
2019-03-15T11:33:47.468Z,8.35
2019-03-15T11:35:53.833Z,8.52
2019-03-15T11:38:00.520Z,8.68
2019-03-15T11:40:19.144Z,8.90
2019-03-15T11:42:25.659Z,9.03
2019-03-15T11:44:32.397Z,9.10
2019-03-15T11:46:39.061Z,9.06
2019-03-15T11:48:45.796Z,8.99
2019-03-15T11:50:52.485Z,8.94
2019-03-15T11:52:59.164Z,8.89
2019-03-15T11:55:07.921Z,9.03
2019-03-15T11:57:14.668Z,9.05
2019-03-15T11:59:21.396Z,8.86
2019-03-15T12:01:28.068Z,8.57
2019-03-15T12:03:34.743Z,7.96
2019-03-15T12:05:41.427Z,7.60
2019-03-15T12:07:48.081Z,7.46
2019-03-15T12:09:54.756Z,7.28
2019-03-15T12:12:01.412Z,7.31
2019-03-15T12:14:08.136Z,7.44
2019-03-15T12:16:14.816Z,7.49
2019-03-15T12:18:21.473Z,7.66
2019-03-15T12:20:28.136Z,7.86
2019-03-15T12:22:35.018Z,8.00
2019-03-15T12:24:41.678Z,8.23
2019-03-15T12:26:48.391Z,8.59
2019-03-15T12:28:55.070Z,8.79
2019-03-15T12:31:01.669Z,9.02
2019-03-15T12:33:08.315Z,8.95
2019-03-15T12:35:19.106Z,8.93
2019-03-15T12:37:25.766Z,8.97
2019-03-15T12:39:32.435Z,9.21
2019-03-15T12:41:39.146Z,9.33
2019-03-15T12:43:45.790Z,9.40
2019-03-15T12:45:52.510Z,9.19
2019-03-15T12:48:00.353Z,8.98
2019-03-15T12:50:12.571Z,8.77
2019-03-15T12:52:20.634Z,8.74
2019-03-15T12:54:27.648Z,8.64
2019-03-15T12:56:34.400Z,8.65
2019-03-15T12:58:41.060Z,8.62
2019-03-15T13:00:47.815Z,8.63
2019-03-15T13:02:54.538Z,8.65
2019-03-15T13:05:01.197Z,8.68
2019-03-15T13:07:07.869Z,8.74
2019-03-15T13:09:14.638Z,8.84
2019-03-15T13:11:21.316Z,8.92
2019-03-15T13:13:28.258Z,8.95
2019-03-15T13:15:35.211Z,8.88
2019-03-15T13:17:41.948Z,8.88
2019-03-15T13:19:54.948Z,8.86
2019-03-15T13:21:56.988Z,8.99
2019-03-15T13:24:04.815Z,9.03
2019-03-15T13:26:12.229Z,9.05
2019-03-15T13:28:19.481Z,9.17
2019-03-15T13:30:27.673Z,9.21
2019-03-15T13:32:34.350Z,9.02
2019-03-15T13:34:41.010Z,8.82
2019-03-15T13:36:47.838Z,8.82
2019-03-15T13:38:54.516Z,8.77
2019-03-15T13:41:01.164Z,8.77
2019-03-15T13:43:07.818Z,8.74
2019-03-15T13:45:16.018Z,8.60
2019-03-15T13:47:22.761Z,8.44
2019-03-15T13:49:29.481Z,8.21
2019-03-15T13:51:36.471Z,8.13
2019-03-15T13:53:43.472Z,8.05
2019-03-15T13:55:50.298Z,8.18
2019-03-15T13:57:57.073Z,8.25
2019-03-15T14:00:04.691Z,8.33
2019-03-15T14:02:11.644Z,8.30
2019-03-15T14:04:18.335Z,8.29
2019-03-15T14:06:25.003Z,8.35
2019-03-15T14:08:31.658Z,8.43
2019-03-15T14:10:48.547Z,8.51
2019-03-15T14:12:46.854Z,8.58
2019-03-15T14:14:53.497Z,8.58
2019-03-15T14:17:00.195Z,8.55
2019-03-15T14:19:06.981Z,8.46
2019-03-15T14:21:13.706Z,8.38
2019-03-15T14:23:21.414Z,8.34
2019-03-15T14:25:29.869Z,8.32
2019-03-15T14:27:37.825Z,8.26
2019-03-15T14:29:45.790Z,8.26
2019-03-15T14:31:52.595Z,8.30
2019-03-15T14:33:59.262Z,8.34
2019-03-15T14:36:05.973Z,8.37
2019-03-15T14:38:12.693Z,8.39
2019-03-15T14:40:19.481Z,8.43
2019-03-15T14:42:26.281Z,8.37
2019-03-15T14:44:33.017Z,8.25
2019-03-15T14:46:39.816Z,8.17
2019-03-15T14:48:46.632Z,7.91
2019-03-15T14:50:53.352Z,7.84
2019-03-15T14:53:00.060Z,7.88
2019-03-15T14:55:17.739Z,7.85
2019-03-15T14:57:26.644Z,7.91
2019-03-15T14:59:33.099Z,7.87
2019-03-15T15:01:39.775Z,7.88
2019-03-15T15:03:46.431Z,7.80
2019-03-15T15:05:53.165Z,7.77
2019-03-15T15:07:59.915Z,7.66
2019-03-15T15:10:15.008Z,7.42
2019-03-15T15:12:21.657Z,7.33
2019-03-15T15:14:28.443Z,7.21
2019-03-15T15:16:35.164Z,7.01
2019-03-15T15:18:41.889Z,6.92
2019-03-15T15:20:48.582Z,6.84
2019-03-15T15:22:55.671Z,6.72
2019-03-15T15:25:02.293Z,6.62
2019-03-15T15:27:09.052Z,6.62
2019-03-15T15:29:15.776Z,6.57
2019-03-15T15:31:22.432Z,6.58
2019-03-15T15:33:29.127Z,6.53
2019-03-15T15:35:35.835Z,6.50
2019-03-15T15:37:44.210Z,6.46
2019-03-15T15:39:52.737Z,6.47
2019-03-15T15:41:59.482Z,6.50
2019-03-15T15:44:06.410Z,6.49
2019-03-15T15:46:13.214Z,6.47
2019-03-15T15:48:19.877Z,6.51
2019-03-15T15:50:26.657Z,6.50
2019-03-15T15:52:33.483Z,6.48
2019-03-15T15:54:40.404Z,6.47
2019-03-15T15:56:47.179Z,6.47
2019-03-15T15:58:53.873Z,6.43
2019-03-15T16:01:02.074Z,6.41
2019-03-15T16:03:09.353Z,6.43
2019-03-15T16:05:17.169Z,6.43
2019-03-15T16:07:23.910Z,6.41
2019-03-15T16:09:30.738Z,6.40
2019-03-15T16:11:37.663Z,6.37
2019-03-15T16:13:44.504Z,6.39
2019-03-15T16:15:51.348Z,6.38
2019-03-15T16:17:58.082Z,6.37
2019-03-15T16:20:06.493Z,6.36
2019-03-15T16:22:13.276Z,6.33
2019-03-15T16:24:20.140Z,6.32
2019-03-15T16:26:27.435Z,6.31
2019-03-15T16:28:36.176Z,6.29
2019-03-15T16:30:42.579Z,6.25
2019-03-15T16:32:49.381Z,6.23
2019-03-15T16:34:56.156Z,6.18
2019-03-15T16:37:03.259Z,6.16
2019-03-15T16:39:10.017Z,6.13
2019-03-15T16:41:16.891Z,6.08
2019-03-15T16:43:23.664Z,6.07
2019-03-15T16:45:34.425Z,6.05
2019-03-15T16:47:41.146Z,6.02
2019-03-15T16:49:47.956Z,5.99
2019-03-15T16:51:54.654Z,5.94
2019-03-15T16:54:01.392Z,5.91
2019-03-15T16:56:08.178Z,5.89
2019-03-15T16:58:15.918Z,5.84
2019-03-15T17:00:22.700Z,5.78
2019-03-15T17:02:29.567Z,5.73
2019-03-15T17:04:36.232Z,5.67
2019-03-15T17:06:42.999Z,5.59
2019-03-15T17:08:50.096Z,5.55
2019-03-15T17:10:56.739Z,5.50
2019-03-15T17:13:03.499Z,5.47
2019-03-15T17:15:28.605Z,5.44
2019-03-15T17:17:35.319Z,5.40
2019-03-15T17:19:42.346Z,5.40
2019-03-15T17:21:49.405Z,5.38
2019-03-15T17:23:57.130Z,5.37
2019-03-15T17:26:03.856Z,5.36
2019-03-15T17:28:10.558Z,5.35
2019-03-15T17:30:18.658Z,5.34
2019-03-15T17:32:26.299Z,5.31
2019-03-15T17:34:34.093Z,5.30
2019-03-15T17:36:40.754Z,5.27
2019-03-15T17:38:47.518Z,5.27
2019-03-15T17:40:54.262Z,5.25
2019-03-15T17:43:00.993Z,5.22
2019-03-15T17:45:09.351Z,5.19
2019-03-15T17:47:16.131Z,5.19
2019-03-15T17:49:22.793Z,5.19
2019-03-15T17:51:29.457Z,5.17
2019-03-15T17:53:36.229Z,5.15
2019-03-15T17:55:42.960Z,5.12
2019-03-15T17:57:49.902Z,5.10
2019-03-15T18:00:18.733Z,5.10
2019-03-15T18:02:25.465Z,5.07
2019-03-15T18:04:32.206Z,5.04
2019-03-15T18:06:38.977Z,5.00
2019-03-15T18:08:45.728Z,4.98
2019-03-15T18:10:52.478Z,4.96
2019-03-15T18:12:59.250Z,5.00
2019-03-15T18:15:09.497Z,5.03
2019-03-15T18:17:17.193Z,5.07
2019-03-15T18:19:23.981Z,5.09
2019-03-15T18:21:30.722Z,5.12
2019-03-15T18:23:37.455Z,5.15
2019-03-15T18:25:44.335Z,5.18
2019-03-15T18:27:51.934Z,5.20
2019-03-15T18:29:58.666Z,5.23
2019-03-15T18:32:05.442Z,5.30
2019-03-15T18:34:12.417Z,5.30
2019-03-15T18:36:20.835Z,5.31
2019-03-15T18:38:27.716Z,5.32
2019-03-15T18:40:34.479Z,5.32
2019-03-15T18:42:41.362Z,5.32
2019-03-15T18:44:48.121Z,5.28
2019-03-15T18:46:54.894Z,5.27
2019-03-15T18:49:01.637Z,5.22
2019-03-15T18:51:08.420Z,5.20
2019-03-15T18:53:16.675Z,5.12
2019-03-15T18:55:23.551Z,5.05
2019-03-15T18:57:30.304Z,5.00
2019-03-15T18:59:40.304Z,4.97
2019-03-15T19:01:47.981Z,4.93
2019-03-15T19:03:54.888Z,4.91
2019-03-15T19:06:01.734Z,4.86
2019-03-15T19:08:08.570Z,4.81
2019-03-15T19:10:16.508Z,4.77
2019-03-15T19:12:23.279Z,4.74
2019-03-15T19:14:31.578Z,4.73
2019-03-15T19:16:39.939Z,4.73
2019-03-15T19:18:46.667Z,4.74
2019-03-15T19:20:53.536Z,4.78
2019-03-15T19:23:01.433Z,4.86
2019-03-15T19:25:11.839Z,4.90
2019-03-15T19:27:18.658Z,4.95
2019-03-15T19:29:25.453Z,5.02
2019-03-15T19:31:32.176Z,5.05
2019-03-15T19:33:38.907Z,5.06
2019-03-15T19:35:45.674Z,5.09
2019-03-15T19:37:52.518Z,5.12
2019-03-15T19:39:59.202Z,5.13
2019-03-15T19:42:06.072Z,5.13
2019-03-15T19:44:12.819Z,5.15
2019-03-15T19:46:19.596Z,5.16
2019-03-15T19:48:26.281Z,5.17
2019-03-15T19:50:33.005Z,5.18
2019-03-15T19:52:40.764Z,5.20
2019-03-15T19:54:59.952Z,5.22
2019-03-15T19:56:56.105Z,5.22
2019-03-15T19:59:04.197Z,5.25
2019-03-15T20:01:12.324Z,5.28
2019-03-15T20:03:20.113Z,5.30
2019-03-15T20:05:26.974Z,5.31
2019-03-15T20:07:33.825Z,5.33
2019-03-15T20:09:40.631Z,5.36
2019-03-15T20:11:47.528Z,5.36
2019-03-15T20:13:55.516Z,5.37
2019-03-15T20:16:02.267Z,5.36
2019-03-15T20:18:09.219Z,5.36
2019-03-15T20:20:18.814Z,5.36
2019-03-15T20:22:27.026Z,5.34
2019-03-15T20:24:36.571Z,5.32
2019-03-15T20:26:42.349Z,5.28
2019-03-15T20:28:50.610Z,5.28
2019-03-15T20:30:57.463Z,5.28
2019-03-15T20:33:04.435Z,5.27
2019-03-15T20:35:12.426Z,5.24
2019-03-15T20:37:19.143Z,5.24
2019-03-15T20:39:26.511Z,5.23
2019-03-15T20:41:33.251Z,5.21
2019-03-15T20:43:40.081Z,5.15
2019-03-15T20:45:47.006Z,5.14
2019-03-15T20:47:53.881Z,5.10
2019-03-15T20:50:00.626Z,5.10
2019-03-15T20:52:08.467Z,5.09
2019-03-15T20:54:16.499Z,5.08
2019-03-15T20:56:25.768Z,5.08
2019-03-15T20:58:34.071Z,5.08
2019-03-15T21:00:42.326Z,5.08
2019-03-15T21:02:50.279Z,5.07
2019-03-15T21:04:58.604Z,5.06
2019-03-15T21:07:06.898Z,5.03
2019-03-15T21:09:13.849Z,4.99
2019-03-15T21:11:20.609Z,4.99
2019-03-15T21:13:27.347Z,4.95
2019-03-15T21:15:35.332Z,4.93
2019-03-15T21:17:42.027Z,4.89
2019-03-15T21:19:48.692Z,4.87
2019-03-15T21:21:56.593Z,4.87
2019-03-15T21:24:03.607Z,4.85
2019-03-15T21:26:11.915Z,4.87
2019-03-15T21:28:21.551Z,4.87
2019-03-15T21:30:28.746Z,4.87
2019-03-15T21:32:35.535Z,4.86
2019-03-15T21:34:42.293Z,4.88
2019-03-15T21:36:49.443Z,4.90
2019-03-15T21:38:56.118Z,4.89
2019-03-15T21:41:02.856Z,4.90
2019-03-15T21:43:09.867Z,4.93
2019-03-15T21:45:16.661Z,4.95
2019-03-15T21:47:24.844Z,4.96
2019-03-15T21:49:34.978Z,4.98
2019-03-15T21:51:40.118Z,4.97
2019-03-15T21:53:46.924Z,4.96
2019-03-15T21:55:55.171Z,4.96
2019-03-15T21:58:01.909Z,4.94
2019-03-15T22:00:19.199Z,4.94
2019-03-15T22:02:26.128Z,4.94
2019-03-15T22:04:34.431Z,4.95
2019-03-15T22:06:41.186Z,4.94
2019-03-15T22:08:49.117Z,4.93
2019-03-15T22:10:56.437Z,4.93
2019-03-15T22:13:04.606Z,4.94
2019-03-15T22:15:13.363Z,4.94
2019-03-15T22:17:20.264Z,4.98
2019-03-15T22:19:27.078Z,4.99
2019-03-15T22:21:33.951Z,4.98
2019-03-15T22:23:40.780Z,4.97
2019-03-15T22:25:50.115Z,4.95
2019-03-15T22:27:56.984Z,4.93
2019-03-15T22:30:04.973Z,4.93
2019-03-15T22:32:11.664Z,4.91
2019-03-15T22:34:18.414Z,4.90
2019-03-15T22:36:25.113Z,4.91
2019-03-15T22:38:31.845Z,4.90
2019-03-15T22:40:38.679Z,4.93
2019-03-15T22:42:45.534Z,4.98
2019-03-15T22:44:52.590Z,5.02
2019-03-15T22:46:59.277Z,5.05
2019-03-15T22:49:05.948Z,5.08
2019-03-15T22:51:12.619Z,5.11
2019-03-15T22:53:20.837Z,5.15
2019-03-15T22:55:27.824Z,5.18
2019-03-15T22:57:36.013Z,5.19
2019-03-15T22:59:42.688Z,5.21
2019-03-15T23:01:49.558Z,5.20
2019-03-15T23:03:56.313Z,5.18
2019-03-15T23:06:03.024Z,5.15
2019-03-15T23:08:09.770Z,5.14
2019-03-15T23:10:16.439Z,5.13
2019-03-15T23:12:23.125Z,5.13
2019-03-15T23:14:29.783Z,5.14
2019-03-15T23:16:36.446Z,5.13
2019-03-15T23:18:43.138Z,5.13
2019-03-15T23:20:49.792Z,5.16
2019-03-15T23:22:56.586Z,5.19
2019-03-15T23:25:03.277Z,5.22
2019-03-15T23:27:09.938Z,5.24
2019-03-15T23:29:16.665Z,5.23
2019-03-15T23:31:23.390Z,5.27
2019-03-15T23:33:30.115Z,5.27
2019-03-15T23:35:52.828Z,5.30
2019-03-15T23:37:45.217Z,5.32
2019-03-15T23:39:51.878Z,5.33
2019-03-15T23:41:58.602Z,5.34
2019-03-15T23:44:05.383Z,5.33
2019-03-15T23:46:12.037Z,5.35
2019-03-15T23:48:18.763Z,5.32
2019-03-15T23:50:25.527Z,5.24
2019-03-15T23:52:32.255Z,5.18
2019-03-15T23:54:38.902Z,5.13
2019-03-15T23:56:45.658Z,5.09
2019-03-15T23:58:52.307Z,5.05
